createdAt,value
2022-08-07T00:02:37.836Z,1
2022-08-07T00:12:00.287Z,1
2022-08-07T00:22:02.393Z,1
2022-08-07T00:32:00.300Z,1
2022-08-07T00:42:01.522Z,1
2022-08-07T00:52:00.290Z,1
2022-08-07T01:02:00.226Z,1
2022-08-07T01:12:05.226Z,1
2022-08-07T01:22:00.180Z,1
2022-08-07T01:32:00.270Z,1
2022-08-07T01:42:07.790Z,1
2022-08-07T01:52:03.043Z,1
2022-08-07T02:02:02.280Z,1
2022-08-07T02:12:03.173Z,1
2022-08-07T02:22:00.385Z,1
2022-08-07T02:32:00.297Z,1
2022-08-07T02:42:00.375Z,1
2022-08-07T02:52:00.486Z,1
2022-08-07T03:02:01.223Z,1
2022-08-07T03:12:02.683Z,1
2022-08-07T03:22:00.401Z,1
2022-08-07T03:32:00.512Z,1
2022-08-07T03:42:00.689Z,1
2022-08-07T03:52:01.366Z,1
2022-08-07T04:02:00.376Z,3
2022-08-07T04:12:23.475Z,8
2022-08-07T04:22:05.508Z,15
2022-08-07T04:32:02.723Z,21
2022-08-07T04:42:00.544Z,39
2022-08-07T04:52:00.466Z,62
2022-08-07T05:02:00.597Z,67
2022-08-07T05:12:02.164Z,81
2022-08-07T05:22:01.913Z,87
2022-08-07T05:32:00.443Z,88
2022-08-07T05:42:04.493Z,90
2022-08-07T05:52:00.475Z,93
2022-08-07T06:02:00.596Z,94
2022-08-07T06:12:00.650Z,95
2022-08-07T06:22:11.947Z,96
2022-08-07T06:32:01.558Z,94
2022-08-07T06:42:03.185Z,95
2022-08-07T06:52:02.969Z,98
2022-08-07T07:02:00.630Z,98
2022-08-07T07:12:07.160Z,97
2022-08-07T07:22:04.418Z,96
2022-08-07T07:32:00.648Z,97
2022-08-07T07:42:08.602Z,97
2022-08-07T07:52:00.640Z,98
2022-08-07T08:02:01.389Z,98
2022-08-07T08:12:03.200Z,98
2022-08-07T08:22:03.525Z,98
2022-08-07T08:32:17.729Z,98
2022-08-07T08:42:00.744Z,98
2022-08-07T08:52:13.520Z,98
2022-08-07T09:02:00.774Z,98
2022-08-07T09:12:09.073Z,97
2022-08-07T09:22:10.207Z,96
2022-08-07T09:32:00.808Z,97
2022-08-07T09:42:06.119Z,97
2022-08-07T09:52:09.626Z,97
2022-08-07T10:02:00.714Z,97
2022-08-07T10:12:03.555Z,97
2022-08-07T10:22:16.476Z,97
2022-08-07T10:32:00.811Z,97
2022-08-07T10:42:09.600Z,97
2022-08-07T10:52:02.481Z,97
2022-08-07T11:02:02.806Z,97
2022-08-07T11:12:00.889Z,97
2022-08-07T11:22:00.898Z,97
2022-08-07T11:32:00.794Z,97
2022-08-07T11:42:02.319Z,97
2022-08-07T11:52:01.020Z,97
2022-08-07T12:02:01.221Z,97
2022-08-07T12:12:09.850Z,96
2022-08-07T12:22:38.380Z,96
2022-08-07T12:32:02.417Z,96
2022-08-07T12:42:00.889Z,96
2022-08-07T12:52:12.483Z,96
2022-08-07T13:02:00.928Z,96
2022-08-07T13:12:02.913Z,96
2022-08-07T13:22:04.045Z,96
2022-08-07T13:32:06.206Z,96
2022-08-07T13:42:01.088Z,96
2022-08-07T13:52:04.264Z,96
2022-08-07T14:02:04.248Z,96
2022-08-07T14:12:04.657Z,96
2022-08-07T14:22:10.578Z,96
2022-08-07T14:32:01.021Z,96
2022-08-07T14:42:18.202Z,96
2022-08-07T14:52:02.736Z,96
2022-08-07T15:02:01.107Z,96
2022-08-07T15:12:01.377Z,96
2022-08-07T15:22:03.981Z,96
2022-08-07T15:32:02.672Z,96
2022-08-07T15:42:45.392Z,96
2022-08-07T15:52:01.495Z,96
2022-08-07T16:02:01.575Z,95
2022-08-07T16:12:01.194Z,95
2022-08-07T16:22:06.696Z,95
2022-08-07T16:32:01.397Z,95
2022-08-07T16:42:01.304Z,95
2022-08-07T16:52:48.995Z,95
2022-08-07T17:02:03.031Z,95
2022-08-07T17:12:05.456Z,95
2022-08-07T17:22:01.349Z,95
2022-08-07T17:32:02.409Z,95
2022-08-07T17:42:06.385Z,95
2022-08-07T17:52:01.633Z,94
2022-08-07T18:02:01.318Z,94
2022-08-07T18:12:08.467Z,93
2022-08-07T18:22:05.328Z,92
2022-08-07T18:32:01.393Z,91
2022-08-07T18:42:01.352Z,89
2022-08-07T18:52:25.914Z,88
2022-08-07T19:02:19.699Z,86
2022-08-07T19:12:04.401Z,84
2022-08-07T19:22:04.155Z,79
2022-08-07T19:32:17.218Z,76
2022-08-07T19:42:05.495Z,70
2022-08-07T19:52:01.435Z,64
2022-08-07T20:02:01.484Z,49
2022-08-07T20:12:23.138Z,32
2022-08-07T20:22:02.747Z,14
2022-08-07T20:32:01.359Z,7
2022-08-07T20:42:01.454Z,2
2022-08-07T20:52:01.365Z,2
2022-08-07T21:02:01.510Z,2
2022-08-07T21:12:01.388Z,1
2022-08-07T21:22:01.496Z,1
2022-08-07T21:32:43.340Z,1
2022-08-07T21:42:02.598Z,1
2022-08-07T21:52:01.455Z,1
2022-08-07T22:02:07.974Z,1
2022-08-07T22:12:06.017Z,1
2022-08-07T22:22:05.452Z,1
2022-08-07T22:32:05.433Z,1
2022-08-07T22:42:02.784Z,1
2022-08-07T22:52:01.637Z,1
2022-08-07T23:02:01.576Z,1
2022-08-07T23:12:01.677Z,1
2022-08-07T23:22:01.555Z,1
2022-08-07T23:32:49.764Z,1
2022-08-07T23:42:05.207Z,1
2022-08-07T23:52:57.353Z,1
